SBI2005 UNBB-USSS
Flight info
| Callsign | SBI2005 |
|---|---|
| Flight time | N/A |
| Altitude | 34000 |
| Route | GIRUR2F GIRUR A489 RALEG P983 TINRI T448 SOPUS SOPUS6S |
| Aircraft | A321/M-SDE3FGHIRWY/LB1 |
Departure
| Time | 2026-04-12 04:26 |
|---|---|
| Airport | Barnaul Gherman Titov International Airport (UNBB) |
Arrival
| Time | N/A |
|---|---|
| Airport | Koltsovo Airport (USSS) |
| Time | Latitude | Longitude | Altitude | Speed | Heading |
|---|---|---|---|---|---|
| 2026-04-12 04:03 | 53.36414 | 83.55318 | 820 ft | 0 kts | 246° |
| 2026-04-12 04:21 | 53.36414 | 83.55317 | 820 ft | 0 kts | 246° |
| 2026-04-12 04:21 | 53.36409 | 83.55298 | 820 ft | 1 kts | 246° |
| 2026-04-12 04:22 | 53.36405 | 83.55282 | 821 ft | 1 kts | 247° |
| 2026-04-12 04:22 | 53.36403 | 83.55274 | 821 ft | 0 kts | 259° |
| 2026-04-12 04:22 | 53.36405 | 83.55257 | 821 ft | 3 kts | 289° |
| 2026-04-12 04:22 | 53.36422 | 83.55229 | 822 ft | 2 kts | 331° |
| 2026-04-12 04:23 | 53.36438 | 83.55224 | 822 ft | 2 kts | 4° |
| 2026-04-12 04:23 | 53.36458 | 83.55256 | 822 ft | 6 kts | 61° |
| 2026-04-12 04:23 | 53.36483 | 83.55348 | 821 ft | 11 kts | 68° |
| 2026-04-12 04:23 | 53.36518 | 83.55492 | 818 ft | 15 kts | 67° |
| 2026-04-12 04:24 | 53.36565 | 83.55677 | 816 ft | 19 kts | 67° |
| 2026-04-12 04:24 | 53.36617 | 83.55885 | 812 ft | 16 kts | 68° |
| 2026-04-12 04:24 | 53.36684 | 83.56008 | 808 ft | 15 kts | 2° |
| 2026-04-12 04:24 | 53.36778 | 83.55947 | 811 ft | 12 kts | 316° |
| 2026-04-12 04:25 | 53.36781 | 83.55823 | 815 ft | 9 kts | 249° |
| 2026-04-12 04:25 | 53.36738 | 83.55652 | 818 ft | 39 kts | 248° |
| 2026-04-12 04:25 | 53.36519 | 83.54783 | 829 ft | 121 kts | 250° |
| 2026-04-12 04:25 | 53.36119 | 83.53202 | 1130 ft | 160 kts | 244° |
| 2026-04-12 04:26 | 53.35677 | 83.51565 | 1959 ft | 153 kts | 251° |
| 2026-04-12 04:26 | 53.35688 | 83.49812 | 2549 ft | 157 kts | 280° |
| 2026-04-12 04:26 | 53.35996 | 83.48015 | 2952 ft | 169 kts | 283° |
| 2026-04-12 04:26 | 53.36340 | 83.46036 | 3258 ft | 187 kts | 283° |
| 2026-04-12 04:27 | 53.36718 | 83.43818 | 3574 ft | 209 kts | 284° |
| 2026-04-12 04:27 | 53.37123 | 83.41400 | 4022 ft | 226 kts | 284° |
| 2026-04-12 04:27 | 53.37555 | 83.38806 | 4634 ft | 236 kts | 284° |
| 2026-04-12 04:27 | 53.37990 | 83.36176 | 5455 ft | 237 kts | 285° |
| 2026-04-12 04:28 | 53.38424 | 83.33530 | 6261 ft | 239 kts | 284° |
| 2026-04-12 04:28 | 53.38861 | 83.30849 | 7058 ft | 241 kts | 285° |
| 2026-04-12 04:28 | 53.39301 | 83.28136 | 7812 ft | 243 kts | 285° |
| 2026-04-12 04:28 | 53.39738 | 83.25433 | 8549 ft | 246 kts | 285° |
| 2026-04-12 04:29 | 53.40186 | 83.22664 | 9274 ft | 249 kts | 286° |
| 2026-04-12 04:29 | 53.40633 | 83.19893 | 9957 ft | 252 kts | 286° |
| 2026-04-12 04:29 | 53.41089 | 83.17065 | 10620 ft | 255 kts | 286° |
| 2026-04-12 04:29 | 53.41563 | 83.14127 | 11010 ft | 270 kts | 287° |
| 2026-04-12 04:30 | 53.42064 | 83.11020 | 11302 ft | 285 kts | 287° |
| 2026-04-12 04:30 | 53.42596 | 83.07705 | 11595 ft | 300 kts | 286° |
| 2026-04-12 04:30 | 53.43149 | 83.04251 | 11865 ft | 315 kts | 286° |
| 2026-04-12 04:30 | 53.43724 | 83.00640 | 12158 ft | 328 kts | 286° |
| 2026-04-12 04:31 | 53.44309 | 82.96944 | 12653 ft | 333 kts | 286° |
| 2026-04-12 04:31 | 53.44904 | 82.93185 | 13258 ft | 336 kts | 286° |
| 2026-04-12 04:31 | 53.45501 | 82.89414 | 13815 ft | 338 kts | 286° |
| 2026-04-12 04:31 | 53.46102 | 82.85610 | 14380 ft | 341 kts | 287° |
| 2026-04-12 04:32 | 53.46714 | 82.81731 | 14919 ft | 344 kts | 287° |
| 2026-04-12 04:32 | 53.47317 | 82.77894 | 15458 ft | 347 kts | 286° |
| 2026-04-12 04:32 | 53.47933 | 82.73966 | 15982 ft | 350 kts | 286° |
| 2026-04-12 04:32 | 53.48556 | 82.69988 | 16466 ft | 353 kts | 286° |
| 2026-04-12 04:33 | 53.49178 | 82.66001 | 16965 ft | 356 kts | 286° |
| 2026-04-12 04:33 | 53.49797 | 82.62018 | 17430 ft | 359 kts | 286° |
| 2026-04-12 04:33 | 53.50429 | 82.57946 | 17900 ft | 362 kts | 286° |
| 2026-04-12 04:33 | 53.51062 | 82.53864 | 18355 ft | 364 kts | 286° |
| 2026-04-12 04:34 | 53.51699 | 82.49735 | 18801 ft | 367 kts | 286° |
| 2026-04-12 04:34 | 53.52333 | 82.45622 | 19235 ft | 369 kts | 286° |
| 2026-04-12 04:34 | 53.52977 | 82.41432 | 19666 ft | 372 kts | 286° |
| 2026-04-12 04:34 | 53.53619 | 82.37239 | 20084 ft | 374 kts | 286° |
| 2026-04-12 04:35 | 53.54271 | 82.32964 | 20499 ft | 377 kts | 285° |
| 2026-04-12 04:35 | 53.54919 | 82.28709 | 20895 ft | 380 kts | 286° |
| 2026-04-12 04:35 | 53.55701 | 82.24445 | 21292 ft | 382 kts | 290° |
| 2026-04-12 04:35 | 53.56674 | 82.20341 | 21706 ft | 383 kts | 294° |
| 2026-04-12 04:36 | 53.57849 | 82.16339 | 22102 ft | 385 kts | 298° |
| 2026-04-12 04:36 | 53.59133 | 82.12357 | 22478 ft | 388 kts | 298° |
| 2026-04-12 04:36 | 53.60419 | 82.08425 | 22848 ft | 390 kts | 299° |
| 2026-04-12 04:36 | 53.61736 | 82.04391 | 23218 ft | 392 kts | 298° |
| 2026-04-12 04:37 | 53.63034 | 82.00404 | 23567 ft | 394 kts | 298° |
| 2026-04-12 04:37 | 53.64346 | 81.96362 | 23922 ft | 396 kts | 298° |
| 2026-04-12 04:37 | 53.65675 | 81.92261 | 24268 ft | 398 kts | 298° |
| 2026-04-12 04:37 | 53.66998 | 81.88171 | 24596 ft | 400 kts | 298° |
| 2026-04-12 04:38 | 53.68320 | 81.84077 | 24906 ft | 403 kts | 298° |
| 2026-04-12 04:38 | 53.69659 | 81.79923 | 25215 ft | 405 kts | 298° |
| 2026-04-12 04:38 | 53.71000 | 81.75752 | 25522 ft | 407 kts | 298° |
| 2026-04-12 04:38 | 53.72348 | 81.71553 | 25832 ft | 408 kts | 298° |
| 2026-04-12 04:39 | 53.73699 | 81.67340 | 26122 ft | 411 kts | 298° |
| 2026-04-12 04:39 | 53.75059 | 81.63087 | 26390 ft | 413 kts | 298° |
| 2026-04-12 04:39 | 53.76422 | 81.58817 | 26659 ft | 415 kts | 298° |
| 2026-04-12 04:39 | 53.77786 | 81.54536 | 26941 ft | 417 kts | 298° |
| 2026-04-12 04:40 | 53.79158 | 81.50223 | 27208 ft | 418 kts | 298° |
| 2026-04-12 04:40 | 53.80518 | 81.45936 | 27549 ft | 418 kts | 298° |
| 2026-04-12 04:40 | 53.81880 | 81.41629 | 27929 ft | 417 kts | 298° |
| 2026-04-12 04:40 | 53.83246 | 81.37305 | 28294 ft | 417 kts | 298° |
| 2026-04-12 04:41 | 53.84595 | 81.33020 | 28631 ft | 416 kts | 297° |
| 2026-04-12 04:41 | 53.85961 | 81.28666 | 28988 ft | 416 kts | 297° |
| 2026-04-12 04:41 | 53.87308 | 81.24364 | 29336 ft | 416 kts | 297° |
| 2026-04-12 04:41 | 53.88649 | 81.20078 | 29692 ft | 415 kts | 297° |
| 2026-04-12 04:42 | 53.89991 | 81.15784 | 30032 ft | 414 kts | 297° |
| 2026-04-12 04:42 | 53.91330 | 81.11498 | 30368 ft | 414 kts | 297° |
| 2026-04-12 04:42 | 53.92682 | 81.07161 | 30719 ft | 413 kts | 297° |
| 2026-04-12 04:43 | 53.95343 | 80.98610 | 31338 ft | 413 kts | 297° |
| 2026-04-12 04:43 | 53.96679 | 80.94305 | 31643 ft | 412 kts | 297° |
| 2026-04-12 04:43 | 53.97997 | 80.90050 | 31944 ft | 411 kts | 297° |
| 2026-04-12 04:43 | 53.99327 | 80.85748 | 32236 ft | 411 kts | 297° |
| 2026-04-12 04:44 | 54.00644 | 80.81482 | 32528 ft | 410 kts | 297° |
| 2026-04-12 04:44 | 54.01956 | 80.77221 | 32768 ft | 410 kts | 297° |
| 2026-04-12 04:44 | 54.03276 | 80.72928 | 32973 ft | 412 kts | 297° |
| 2026-04-12 04:44 | 54.04602 | 80.68606 | 33164 ft | 413 kts | 297° |
| 2026-04-12 04:45 | 54.05926 | 80.64285 | 33371 ft | 414 kts | 297° |
| 2026-04-12 04:45 | 54.07257 | 80.59936 | 33581 ft | 414 kts | 297° |
| 2026-04-12 04:45 | 54.08575 | 80.55621 | 33789 ft | 415 kts | 297° |
| 2026-04-12 04:45 | 54.09900 | 80.51279 | 33996 ft | 415 kts | 297° |
| 2026-04-12 04:46 | 54.11224 | 80.46957 | 34179 ft | 415 kts | 297° |
| 2026-04-12 04:46 | 54.12562 | 80.42606 | 34189 ft | 415 kts | 297° |
| 2026-04-12 04:46 | 54.15216 | 80.33922 | 34212 ft | 416 kts | 297° |
| 2026-04-12 04:47 | 54.17857 | 80.25181 | 34221 ft | 416 kts | 296° |
| 2026-04-12 04:47 | 54.20505 | 80.16379 | 34214 ft | 416 kts | 296° |
| 2026-04-12 04:48 | 54.23127 | 80.07635 | 34211 ft | 416 kts | 296° |
| 2026-04-12 04:48 | 54.25745 | 79.98869 | 34205 ft | 416 kts | 296° |
| 2026-04-12 04:49 | 54.28367 | 79.90060 | 34205 ft | 415 kts | 296° |
| 2026-04-12 04:49 | 54.30872 | 79.81611 | 34206 ft | 416 kts | 296° |
| 2026-04-12 04:50 | 54.33567 | 79.72491 | 34205 ft | 416 kts | 296° |
| 2026-04-12 04:50 | 54.36172 | 79.63643 | 34199 ft | 416 kts | 296° |
| 2026-04-12 04:51 | 54.38749 | 79.54858 | 34198 ft | 416 kts | 296° |
| 2026-04-12 04:51 | 54.41343 | 79.45979 | 34200 ft | 417 kts | 296° |
| 2026-04-12 04:52 | 54.43911 | 79.37154 | 34199 ft | 417 kts | 296° |
| 2026-04-12 04:52 | 54.46495 | 79.28224 | 34194 ft | 416 kts | 296° |
| 2026-04-12 04:53 | 54.49055 | 79.19340 | 34188 ft | 416 kts | 296° |
| 2026-04-12 04:54 | 54.52884 | 79.06014 | 34190 ft | 417 kts | 296° |
| 2026-04-12 04:54 | 54.55430 | 78.97115 | 34191 ft | 417 kts | 296° |
| 2026-04-12 04:55 | 54.57979 | 78.88168 | 34184 ft | 417 kts | 296° |
| 2026-04-12 04:55 | 54.60510 | 78.79256 | 34191 ft | 417 kts | 296° |
| 2026-04-12 04:56 | 54.63056 | 78.70255 | 34184 ft | 417 kts | 296° |
| 2026-04-12 04:56 | 54.65586 | 78.61271 | 34179 ft | 417 kts | 296° |
| 2026-04-12 04:57 | 54.68097 | 78.52327 | 34183 ft | 417 kts | 296° |
| 2026-04-12 04:57 | 54.70627 | 78.43282 | 34185 ft | 418 kts | 296° |
| 2026-04-12 04:58 | 54.73126 | 78.34313 | 34178 ft | 418 kts | 295° |
| 2026-04-12 04:58 | 54.75635 | 78.25242 | 34174 ft | 418 kts | 295° |
| 2026-04-12 04:59 | 54.78121 | 78.16228 | 34175 ft | 418 kts | 295° |
| 2026-04-12 04:59 | 54.80622 | 78.07140 | 34171 ft | 418 kts | 295° |
| 2026-04-12 05:00 | 54.83111 | 77.98068 | 34161 ft | 418 kts | 295° |
| 2026-04-12 05:00 | 54.85591 | 77.88992 | 34164 ft | 418 kts | 296° |
| 2026-04-12 05:01 | 54.88059 | 77.79929 | 34159 ft | 419 kts | 296° |
| 2026-04-12 05:01 | 54.90540 | 77.70776 | 34156 ft | 419 kts | 296° |
| 2026-04-12 05:02 | 54.92977 | 77.61620 | 34162 ft | 419 kts | 294° |
| 2026-04-12 05:02 | 54.95247 | 77.52368 | 34169 ft | 419 kts | 294° |
| 2026-04-12 05:03 | 54.97519 | 77.43014 | 34166 ft | 419 kts | 294° |
| 2026-04-12 05:03 | 54.99764 | 77.33742 | 34159 ft | 419 kts | 293° |
| 2026-04-12 05:04 | 55.02026 | 77.24345 | 34149 ft | 420 kts | 293° |
| 2026-04-12 05:04 | 55.04267 | 77.15002 | 34161 ft | 421 kts | 293° |
| 2026-04-12 05:05 | 55.06512 | 77.05612 | 34168 ft | 421 kts | 293° |
| 2026-04-12 05:05 | 55.08744 | 76.96239 | 34160 ft | 420 kts | 294° |
| 2026-04-12 05:06 | 55.10979 | 76.86855 | 34161 ft | 420 kts | 294° |
| 2026-04-12 05:06 | 55.13220 | 76.77486 | 34158 ft | 420 kts | 294° |
| 2026-04-12 05:07 | 55.15427 | 76.68173 | 34149 ft | 418 kts | 294° |
| 2026-04-12 05:07 | 55.17634 | 76.58772 | 34143 ft | 417 kts | 294° |
| 2026-04-12 05:08 | 55.19810 | 76.49451 | 34151 ft | 418 kts | 294° |
| 2026-04-12 05:08 | 55.22000 | 76.40018 | 34144 ft | 418 kts | 294° |
| 2026-04-12 05:09 | 55.24160 | 76.30671 | 34131 ft | 417 kts | 293° |
| 2026-04-12 05:09 | 55.26315 | 76.21274 | 34144 ft | 417 kts | 293° |
| 2026-04-12 05:10 | 55.28478 | 76.11826 | 34144 ft | 417 kts | 293° |
| 2026-04-12 05:10 | 55.30616 | 76.02445 | 34149 ft | 416 kts | 293° |
| 2026-04-12 05:11 | 55.32751 | 75.93039 | 34142 ft | 416 kts | 293° |
| 2026-04-12 05:11 | 55.34871 | 75.83662 | 34146 ft | 415 kts | 293° |
| 2026-04-12 05:12 | 55.36990 | 75.74249 | 34137 ft | 414 kts | 293° |
| 2026-04-12 05:12 | 55.39094 | 75.64865 | 34139 ft | 415 kts | 293° |
| 2026-04-12 05:13 | 55.41193 | 75.55454 | 34138 ft | 415 kts | 293° |
| 2026-04-12 05:13 | 55.43275 | 75.46075 | 34151 ft | 415 kts | 293° |
| 2026-04-12 05:14 | 55.45351 | 75.36682 | 34151 ft | 414 kts | 293° |
| 2026-04-12 05:14 | 55.47420 | 75.27258 | 34146 ft | 414 kts | 292° |
| 2026-04-12 05:15 | 55.49486 | 75.17806 | 34157 ft | 414 kts | 292° |
| 2026-04-12 05:15 | 55.51537 | 75.08398 | 34149 ft | 413 kts | 292° |
| 2026-04-12 05:16 | 55.53589 | 74.98937 | 34153 ft | 412 kts | 292° |
| 2026-04-12 05:16 | 55.55618 | 74.89546 | 34146 ft | 412 kts | 292° |
| 2026-04-12 05:17 | 55.57645 | 74.80117 | 34150 ft | 412 kts | 292° |
| 2026-04-12 05:17 | 55.59663 | 74.70696 | 34146 ft | 412 kts | 292° |
| 2026-04-12 05:18 | 55.61679 | 74.61237 | 34143 ft | 411 kts | 292° |
| 2026-04-12 05:18 | 55.63673 | 74.51839 | 34139 ft | 411 kts | 292° |
| 2026-04-12 05:19 | 55.65664 | 74.42409 | 34143 ft | 411 kts | 292° |
| 2026-04-12 05:19 | 55.67647 | 74.32975 | 34142 ft | 411 kts | 291° |
| 2026-04-12 05:20 | 55.69620 | 74.23510 | 34146 ft | 411 kts | 291° |
| 2026-04-12 05:20 | 55.71588 | 74.14043 | 34152 ft | 411 kts | 291° |
| 2026-04-12 05:21 | 55.73547 | 74.04585 | 34149 ft | 410 kts | 291° |
| 2026-04-12 05:21 | 55.75498 | 73.95129 | 34156 ft | 410 kts | 291° |
| 2026-04-12 05:22 | 55.77454 | 73.85605 | 34158 ft | 410 kts | 291° |
| 2026-04-12 05:22 | 55.79384 | 73.76155 | 34150 ft | 409 kts | 291° |
| 2026-04-12 05:23 | 55.81312 | 73.66677 | 34160 ft | 409 kts | 291° |
| 2026-04-12 05:23 | 55.83229 | 73.57212 | 34155 ft | 409 kts | 291° |
| 2026-04-12 05:24 | 55.85136 | 73.47751 | 34151 ft | 409 kts | 291° |
| 2026-04-12 05:24 | 55.87041 | 73.38257 | 34155 ft | 409 kts | 291° |
| 2026-04-12 05:25 | 55.88934 | 73.28741 | 34152 ft | 409 kts | 291° |
| 2026-04-12 05:25 | 55.90855 | 73.19250 | 34147 ft | 409 kts | 291° |
| 2026-04-12 05:26 | 55.92829 | 73.09768 | 34148 ft | 410 kts | 292° |
| 2026-04-12 05:26 | 55.94804 | 73.00244 | 34145 ft | 410 kts | 291° |
| 2026-04-12 05:27 | 55.96761 | 72.90742 | 34145 ft | 410 kts | 291° |
| 2026-04-12 05:27 | 55.98712 | 72.81223 | 34157 ft | 410 kts | 291° |
| 2026-04-12 05:28 | 56.00657 | 72.71682 | 34166 ft | 409 kts | 292° |
| 2026-04-12 05:28 | 56.02587 | 72.62173 | 34156 ft | 409 kts | 292° |
| 2026-04-12 05:29 | 56.04510 | 72.52664 | 34152 ft | 408 kts | 292° |
| 2026-04-12 05:29 | 56.06425 | 72.43138 | 34153 ft | 408 kts | 292° |
| 2026-04-12 05:30 | 56.08324 | 72.33646 | 34155 ft | 408 kts | 291° |
| 2026-04-12 05:30 | 56.10219 | 72.24095 | 34165 ft | 408 kts | 291° |
| 2026-04-12 05:31 | 56.12118 | 72.14623 | 34155 ft | 407 kts | 291° |
| 2026-04-12 05:31 | 56.14010 | 72.05115 | 34152 ft | 406 kts | 291° |
| 2026-04-12 05:32 | 56.15889 | 71.95577 | 34163 ft | 406 kts | 291° |
| 2026-04-12 05:32 | 56.17742 | 71.86101 | 34163 ft | 405 kts | 291° |
| 2026-04-12 05:33 | 56.19588 | 71.76612 | 34169 ft | 404 kts | 291° |
| 2026-04-12 05:33 | 56.21423 | 71.67130 | 34165 ft | 404 kts | 291° |
| 2026-04-12 05:34 | 56.23244 | 71.57654 | 34171 ft | 403 kts | 291° |
| 2026-04-12 05:34 | 56.25064 | 71.48157 | 34162 ft | 402 kts | 291° |
| 2026-04-12 05:35 | 56.26870 | 71.38676 | 34180 ft | 402 kts | 291° |
| 2026-04-12 05:35 | 56.28657 | 71.29233 | 34164 ft | 401 kts | 290° |
| 2026-04-12 05:36 | 56.30436 | 71.19782 | 34167 ft | 400 kts | 290° |
| 2026-04-12 05:36 | 56.32211 | 71.10314 | 34169 ft | 400 kts | 290° |
| 2026-04-12 05:37 | 56.33980 | 71.00832 | 34161 ft | 400 kts | 290° |
| 2026-04-12 05:37 | 56.35743 | 70.91340 | 34168 ft | 400 kts | 290° |
| 2026-04-12 05:38 | 56.37487 | 70.81907 | 34174 ft | 399 kts | 290° |
| 2026-04-12 05:38 | 56.39227 | 70.72452 | 34175 ft | 399 kts | 290° |
| 2026-04-12 05:39 | 56.40969 | 70.62940 | 34181 ft | 398 kts | 290° |
| 2026-04-12 05:39 | 56.42691 | 70.53490 | 34191 ft | 398 kts | 290° |
| 2026-04-12 05:40 | 56.44401 | 70.44048 | 34188 ft | 397 kts | 290° |
| 2026-04-12 05:40 | 56.46100 | 70.34627 | 34172 ft | 397 kts | 289° |
| 2026-04-12 05:41 | 56.47797 | 70.25133 | 34190 ft | 396 kts | 289° |
| 2026-04-12 05:41 | 56.49476 | 70.15721 | 34174 ft | 395 kts | 289° |
| 2026-04-12 05:42 | 56.51146 | 70.06297 | 34193 ft | 396 kts | 289° |
| 2026-04-12 05:42 | 56.52778 | 69.96766 | 34186 ft | 396 kts | 288° |
| 2026-04-12 05:43 | 56.55020 | 69.82477 | 34203 ft | 396 kts | 288° |
| 2026-04-12 05:43 | 56.56517 | 69.72913 | 34192 ft | 396 kts | 288° |
| 2026-04-12 05:44 | 56.58015 | 69.63309 | 34198 ft | 396 kts | 288° |
| 2026-04-12 05:44 | 56.59499 | 69.53760 | 34193 ft | 395 kts | 288° |
| 2026-04-12 05:45 | 56.60974 | 69.44199 | 34213 ft | 394 kts | 288° |
| 2026-04-12 05:45 | 56.62439 | 69.34660 | 34201 ft | 394 kts | 287° |
| 2026-04-12 05:46 | 56.63900 | 69.25065 | 34211 ft | 394 kts | 288° |
| 2026-04-12 05:46 | 56.65337 | 69.15582 | 34207 ft | 393 kts | 287° |
| 2026-04-12 05:47 | 56.66785 | 69.05987 | 34216 ft | 393 kts | 287° |
| 2026-04-12 05:47 | 56.68210 | 68.96496 | 34224 ft | 393 kts | 287° |
| 2026-04-12 05:48 | 56.69634 | 68.86951 | 34232 ft | 392 kts | 288° |
| 2026-04-12 05:48 | 56.71058 | 68.77359 | 34221 ft | 393 kts | 288° |
| 2026-04-12 05:49 | 56.72464 | 68.67818 | 34224 ft | 393 kts | 288° |
| 2026-04-12 05:49 | 56.73866 | 68.58262 | 34223 ft | 392 kts | 287° |
| 2026-04-12 05:50 | 56.75259 | 68.48692 | 34220 ft | 392 kts | 288° |
| 2026-04-12 05:50 | 56.76642 | 68.39167 | 34218 ft | 391 kts | 287° |
| 2026-04-12 05:51 | 56.78019 | 68.29566 | 34223 ft | 391 kts | 287° |
| 2026-04-12 05:51 | 56.79383 | 68.20009 | 34234 ft | 391 kts | 287° |
| 2026-04-12 05:52 | 56.80740 | 68.10458 | 34233 ft | 392 kts | 287° |
| 2026-04-12 05:52 | 56.82092 | 68.00903 | 34232 ft | 392 kts | 287° |
| 2026-04-12 05:53 | 56.83447 | 67.91263 | 34231 ft | 391 kts | 287° |
| 2026-04-12 05:53 | 56.84782 | 67.81697 | 34228 ft | 391 kts | 287° |
| 2026-04-12 05:54 | 56.86117 | 67.72080 | 34214 ft | 390 kts | 287° |
| 2026-04-12 05:54 | 56.87434 | 67.62516 | 34221 ft | 390 kts | 287° |
| 2026-04-12 05:55 | 56.88745 | 67.52970 | 34213 ft | 391 kts | 287° |
| 2026-04-12 05:55 | 56.90056 | 67.43349 | 34219 ft | 391 kts | 286° |
| 2026-04-12 05:56 | 56.91354 | 67.33749 | 34228 ft | 391 kts | 286° |
| 2026-04-12 05:56 | 56.92649 | 67.24083 | 34218 ft | 391 kts | 285° |
| 2026-04-12 05:57 | 56.93940 | 67.14423 | 34221 ft | 392 kts | 285° |
| 2026-04-12 05:57 | 56.95215 | 67.04802 | 34239 ft | 391 kts | 286° |
| 2026-04-12 05:58 | 56.96490 | 66.95136 | 34227 ft | 392 kts | 285° |
| 2026-04-12 05:58 | 56.97751 | 66.85503 | 34228 ft | 391 kts | 285° |
| 2026-04-12 05:59 | 56.99011 | 66.75841 | 34235 ft | 391 kts | 285° |
| 2026-04-12 05:59 | 57.00258 | 66.66199 | 34234 ft | 391 kts | 285° |
| 2026-04-12 06:00 | 57.01496 | 66.56551 | 34243 ft | 390 kts | 285° |
| 2026-04-12 06:00 | 57.02738 | 66.46830 | 34233 ft | 391 kts | 285° |
| 2026-04-12 06:01 | 57.03965 | 66.37159 | 34251 ft | 391 kts | 285° |
| 2026-04-12 06:01 | 57.05176 | 66.27503 | 34226 ft | 391 kts | 284° |
| 2026-04-12 06:02 | 57.06397 | 66.17729 | 34233 ft | 393 kts | 284° |
| 2026-04-12 06:02 | 57.07601 | 66.08025 | 34236 ft | 392 kts | 284° |
| 2026-04-12 06:03 | 57.07803 | 66.06396 | 34236 ft | 392 kts | 284° |